Padre Island — WDB4436 — position and weather

sailwx.info

Track history (hours):
 
Tides and Currents Weather Stations Pressure Air Temp Water Temp Dewpoint Dewpoint Depression Visibility Wind Speed Wind Dir Waves Ship Positions

Padre Island

More information available from US FCC via Universal Licensing System and Coast Guard Vessel Documentation Center.

Last reported at 2014-Jul-23 11:29 UTC. Time now 2014-Jul-23 11:59 UTC.
Position N 39°51' W 075°14'.

Length 86 m; draft 19.6 m.

Type: Dredging. MMSI: 367525000.

Date/timePositionNaut miles runAvg speedWind from/ knotsBaromVisibWave heightAir tempDewpointWater temp
2014-Jul-23 11:29N 39°51' W 075°14'0 0.4
2014-Jul-23 10:31N 39°51' W 075°15'0 0.1
2014-Jul-23 07:23N 39°51' W 075°16'3 1.1
2014-Jul-23 04:30N 39°53' W 075°12'3 0.5
2014-Jul-22 23:31N 39°51' W 075°15'0 0.2
2014-Jul-22 22:32N 39°51' W 075°15'2 0.1
2014-Jul-22 09:31N 39°52' W 075°13'0 0.0
2014-Jul-22 08:34N 39°52' W 075°13'0 0.0
2014-Jul-22 05:06N 39°52' W 075°13'0 0.1
2014-Jul-22 04:27N 39°52' W 075°13'0 0.1
2014-Jul-22 03:12N 39°52' W 075°13'0 0.0
2014-Jul-22 02:33N 39°52' W 075°13'3 0.2
2014-Jul-21 15:10N 39°51' W 075°16'2 3.9
2014-Jul-21 14:32N 39°52' W 075°13'  
2014-Jul-18 12:33N 39°52' W 075°13'2 0.1
2014-Jul-16 20:27N 39°51' W 075°15'23 7.3
2014-Jul-16 17:19N 39°33' W 075°33'59 6.5
2014-Jul-16 08:15N 39°23' W 074°18'710.1
2014-Jul-16 07:33N 39°29' W 074°12'10 9.9
2014-Jul-16 06:33N 39°37' W 074°05'1010.1
2014-Jul-16 05:33N 39°47' W 074°01'1010.2
2014-Jul-16 04:32N 39°57' W 073°59'1010.0
2014-Jul-16 03:33N 40°07' W 073°56'22 9.5
2014-Jul-16 01:12N 40°29' W 073°59'6 7.4
2014-Jul-16 00:26N 40°29' W 074°06'0 0.0
2014-Jul-15 18:09N 40°29' W 074°06'0 0.0
2014-Jul-15 17:23N 40°29' W 074°06'0 0.0
2014-Jul-15 16:29N 40°29' W 074°06'0 0.0
2014-Jul-15 14:29N 40°29' W 074°06'0 0.0
2014-Jul-15 13:17N 40°29' W 074°06'0 0.0
2014-Jul-15 12:32N 40°29' W 074°06'0 0.0
2014-Jul-15 11:32N 40°29' W 074°06'0 0.0
2014-Jul-15 10:32N 40°29' W 074°06'0 0.1
2014-Jul-15 09:26N 40°29' W 074°06'0 0.0
2014-Jul-15 08:32N 40°29' W 074°06'0 0.0
2014-Jul-15 07:29N 40°29' W 074°06'0 0.0
2014-Jul-15 06:17N 40°29' W 074°06'0 0.0
2014-Jul-15 04:26N 40°29' W 074°06'0 0.0
2014-Jul-14 19:32N 40°29' W 074°06'0 0.0
2014-Jul-14 17:26N 40°29' W 074°06'0 0.0
2014-Jul-14 16:26N 40°29' W 074°06'0 0.0
2014-Jul-14 15:32N 40°29' W 074°06'0 0.0
2014-Jul-14 13:29N 40°29' W 074°06'0 0.0
2014-Jul-14 11:29N 40°29' W 074°06'0 0.0
2014-Jul-14 10:26N 40°29' W 074°06'0 0.1
2014-Jul-14 09:32N 40°29' W 074°06'0 0.0
2014-Jul-14 08:32N 40°29' W 074°06'0 0.0
2014-Jul-14 07:32N 40°29' W 074°06'0 0.0
2014-Jul-14 04:20N 40°29' W 074°06'0 0.1
2014-Jul-14 03:32N 40°29' W 074°06'0 0.0
2014-Jul-14 02:05N 40°29' W 074°06'0 0.0
2014-Jul-14 00:20N 40°29' W 074°06'0 0.0
2014-Jul-13 23:29N 40°29' W 074°06'0 0.0
2014-Jul-13 22:32N 40°29' W 074°06'0 0.0
2014-Jul-13 21:32N 40°29' W 074°06'6 5.8
2014-Jul-13 20:33N 40°29' W 073°59'6 6.0
2014-Jul-13 19:33N 40°25' W 073°53'0 0.3
2014-Jul-13 18:33N 40°25' W 073°53'4 3.8
2014-Jul-13 17:28N 40°28' W 073°57'6 6.6
2014-Jul-13 16:33N 40°29' W 074°05'0 0.0
2014-Jul-13 15:33N 40°28' W 074°05'3 3.2
2014-Jul-13 14:33N 40°29' W 074°01'5 5.1
2014-Jul-13 13:34N 40°26' W 073°56'1 0.7
2014-Jul-13 12:33N 40°25' W 073°56'0 0.2
2014-Jul-13 11:34N 40°25' W 073°56'  
Track history (hours):
 
Tides and Currents Weather Stations Pressure Air Temp Water Temp Dewpoint Dewpoint Depression Visibility Wind Speed Wind Dir Waves Ship Positions

Padre Island

More information available from US FCC via Universal Licensing System and Coast Guard Vessel Documentation Center.

Last reported at 2014-Jul-23 11:29 UTC. Time now 2014-Jul-23 11:59 UTC.
Position N 39°51' W 075°14'.

Length 86 m; draft 19.6 m.

Type: Dredging. MMSI: 367525000.

Date/timePositionNaut miles runAvg speedWind from/ knotsBaromVisibWave heightAir tempDewpointWater temp
2014-Jul-23 11:29N 39°51' W 075°14'0 0.4
2014-Jul-23 10:31N 39°51' W 075°15'0 0.1
2014-Jul-23 07:23N 39°51' W 075°16'3 1.1
2014-Jul-23 04:30N 39°53' W 075°12'3 0.5
2014-Jul-22 23:31N 39°51' W 075°15'0 0.2
2014-Jul-22 22:32N 39°51' W 075°15'2 0.1
2014-Jul-22 09:31N 39°52' W 075°13'0 0.0
2014-Jul-22 08:34N 39°52' W 075°13'0 0.0
2014-Jul-22 05:06N 39°52' W 075°13'0 0.1
2014-Jul-22 04:27N 39°52' W 075°13'0 0.1
2014-Jul-22 03:12N 39°52' W 075°13'0 0.0
2014-Jul-22 02:33N 39°52' W 075°13'3 0.2
2014-Jul-21 15:10N 39°51' W 075°16'2 3.9
2014-Jul-21 14:32N 39°52' W 075°13'  
2014-Jul-18 12:33N 39°52' W 075°13'2 0.1
2014-Jul-16 20:27N 39°51' W 075°15'23 7.3
2014-Jul-16 17:19N 39°33' W 075°33'59 6.5
2014-Jul-16 08:15N 39°23' W 074°18'710.1
2014-Jul-16 07:33N 39°29' W 074°12'10 9.9
2014-Jul-16 06:33N 39°37' W 074°05'1010.1
2014-Jul-16 05:33N 39°47' W 074°01'1010.2
2014-Jul-16 04:32N 39°57' W 073°59'1010.0
2014-Jul-16 03:33N 40°07' W 073°56'22 9.5
2014-Jul-16 01:12N 40°29' W 073°59'6 7.4
2014-Jul-16 00:26N 40°29' W 074°06'0 0.0
2014-Jul-15 18:09N 40°29' W 074°06'0 0.0
2014-Jul-15 17:23N 40°29' W 074°06'0 0.0
2014-Jul-15 16:29N 40°29' W 074°06'0 0.0
2014-Jul-15 14:29N 40°29' W 074°06'0 0.0
2014-Jul-15 13:17N 40°29' W 074°06'0 0.0
2014-Jul-15 12:32N 40°29' W 074°06'0 0.0
2014-Jul-15 11:32N 40°29' W 074°06'0 0.0
2014-Jul-15 10:32N 40°29' W 074°06'0 0.1
2014-Jul-15 09:26N 40°29' W 074°06'0 0.0
2014-Jul-15 08:32N 40°29' W 074°06'0 0.0
2014-Jul-15 07:29N 40°29' W 074°06'0 0.0
2014-Jul-15 06:17N 40°29' W 074°06'0 0.0
2014-Jul-15 04:26N 40°29' W 074°06'0 0.0
2014-Jul-14 19:32N 40°29' W 074°06'0 0.0
2014-Jul-14 17:26N 40°29' W 074°06'0 0.0
2014-Jul-14 16:26N 40°29' W 074°06'0 0.0
2014-Jul-14 15:32N 40°29' W 074°06'0 0.0
2014-Jul-14 13:29N 40°29' W 074°06'0 0.0
2014-Jul-14 11:29N 40°29' W 074°06'0 0.0
2014-Jul-14 10:26N 40°29' W 074°06'0 0.1
2014-Jul-14 09:32N 40°29' W 074°06'0 0.0
2014-Jul-14 08:32N 40°29' W 074°06'0 0.0
2014-Jul-14 07:32N 40°29' W 074°06'0 0.0
2014-Jul-14 04:20N 40°29' W 074°06'0 0.1
2014-Jul-14 03:32N 40°29' W 074°06'0 0.0
2014-Jul-14 02:05N 40°29' W 074°06'0 0.0
2014-Jul-14 00:20N 40°29' W 074°06'0 0.0
2014-Jul-13 23:29N 40°29' W 074°06'0 0.0
2014-Jul-13 22:32N 40°29' W 074°06'0 0.0
2014-Jul-13 21:32N 40°29' W 074°06'6 5.8
2014-Jul-13 20:33N 40°29' W 073°59'6 6.0
2014-Jul-13 19:33N 40°25' W 073°53'0 0.3
2014-Jul-13 18:33N 40°25' W 073°53'4 3.8
2014-Jul-13 17:28N 40°28' W 073°57'6 6.6
2014-Jul-13 16:33N 40°29' W 074°05'0 0.0
2014-Jul-13 15:33N 40°28' W 074°05'3 3.2
2014-Jul-13 14:33N 40°29' W 074°01'5 5.1
2014-Jul-13 13:34N 40°26' W 073°56'1 0.7
2014-Jul-13 12:33N 40°25' W 073°56'0 0.2
2014-Jul-13 11:34N 40°25' W 073°56'  

Dump ship's entire track history